sensor_id;sensor_type;location;lat;lon;timestamp;P1;durP1;ratioP1;P2;durP2;ratioP2
33644;SDS011;19986;48.190;16.366;2023-03-13T00:01:21;44.05;;;41.10;;
33644;SDS011;19986;48.190;16.366;2023-03-13T00:03:53;43.83;;;41.35;;
33644;SDS011;19986;48.190;16.366;2023-03-13T00:06:20;44.40;;;42.00;;
33644;SDS011;19986;48.190;16.366;2023-03-13T00:08:48;44.17;;;41.78;;
33644;SDS011;19986;48.190;16.366;2023-03-13T00:11:14;46.00;;;43.30;;
33644;SDS011;19986;48.190;16.366;2023-03-13T00:13:41;44.85;;;42.35;;
33644;SDS011;19986;48.190;16.366;2023-03-13T00:16:11;45.00;;;42.63;;
33644;SDS011;19986;48.190;16.366;2023-03-13T00:18:49;43.00;;;40.80;;
33644;SDS011;19986;48.190;16.366;2023-03-13T00:21:20;45.15;;;42.85;;
33644;SDS011;19986;48.190;16.366;2023-03-13T00:23:53;44.38;;;42.08;;
33644;SDS011;19986;48.190;16.366;2023-03-13T00:26:20;42.30;;;40.17;;
33644;SDS011;19986;48.190;16.366;2023-03-13T00:28:48;43.70;;;41.40;;
33644;SDS011;19986;48.190;16.366;2023-03-13T00:31:19;45.22;;;42.92;;
33644;SDS011;19986;48.190;16.366;2023-03-13T00:33:51;44.75;;;42.38;;
33644;SDS011;19986;48.190;16.366;2023-03-13T00:36:23;42.40;;;40.30;;
33644;SDS011;19986;48.190;16.366;2023-03-13T00:38:54;43.90;;;41.60;;
33644;SDS011;19986;48.190;16.366;2023-03-13T00:41:26;41.70;;;39.70;;
33644;SDS011;19986;48.190;16.366;2023-03-13T00:43:54;45.38;;;42.78;;
33644;SDS011;19986;48.190;16.366;2023-03-13T00:46:21;44.67;;;42.38;;
33644;SDS011;19986;48.190;16.366;2023-03-13T00:48:49;43.40;;;41.20;;
33644;SDS011;19986;48.190;16.366;2023-03-13T00:51:16;44.25;;;41.92;;
33644;SDS011;19986;48.190;16.366;2023-03-13T00:53:43;42.67;;;40.40;;
33644;SDS011;19986;48.190;16.366;2023-03-13T00:56:10;42.40;;;40.30;;
33644;SDS011;19986;48.190;16.366;2023-03-13T00:58:38;45.92;;;43.58;;
33644;SDS011;19986;48.190;16.366;2023-03-13T01:03:32;44.13;;;41.83;;
33644;SDS011;19986;48.190;16.366;2023-03-13T01:05:59;43.92;;;41.72;;
33644;SDS011;19986;48.190;16.366;2023-03-13T01:08:27;46.33;;;44.13;;
33644;SDS011;19986;48.190;16.366;2023-03-13T01:11:14;42.72;;;40.47;;
33644;SDS011;19986;48.190;16.366;2023-03-13T01:13:41;44.65;;;42.20;;
33644;SDS011;19986;48.190;16.366;2023-03-13T01:16:09;44.70;;;42.40;;
33644;SDS011;19986;48.190;16.366;2023-03-13T01:18:37;43.83;;;41.53;;
33644;SDS011;19986;48.190;16.366;2023-03-13T01:21:04;45.75;;;43.42;;
33644;SDS011;19986;48.190;16.366;2023-03-13T01:23:31;43.97;;;41.78;;
33644;SDS011;19986;48.190;16.366;2023-03-13T01:25:57;43.95;;;41.72;;
33644;SDS011;19986;48.190;16.366;2023-03-13T01:28:23;45.28;;;42.97;;
33644;SDS011;19986;48.190;16.366;2023-03-13T01:30:50;45.90;;;43.55;;
33644;SDS011;19986;48.190;16.366;2023-03-13T01:33:16;47.45;;;44.60;;
33644;SDS011;19986;48.190;16.366;2023-03-13T01:35:43;45.78;;;43.30;;
33644;SDS011;19986;48.190;16.366;2023-03-13T01:38:10;44.28;;;41.97;;
33644;SDS011;19986;48.190;16.366;2023-03-13T01:40:40;47.70;;;45.00;;
33644;SDS011;19986;48.190;16.366;2023-03-13T01:43:14;44.58;;;42.28;;
33644;SDS011;19986;48.190;16.366;2023-03-13T01:51:00;45.80;;;43.42;;
33644;SDS011;19986;48.190;16.366;2023-03-13T01:53:30;46.03;;;43.70;;
33644;SDS011;19986;48.190;16.366;2023-03-13T01:55:58;45.78;;;43.33;;
33644;SDS011;19986;48.190;16.366;2023-03-13T01:58:27;46.38;;;43.85;;
33644;SDS011;19986;48.190;16.366;2023-03-13T02:00:54;47.08;;;44.47;;
33644;SDS011;19986;48.190;16.366;2023-03-13T02:03:22;46.10;;;43.60;;
33644;SDS011;19986;48.190;16.366;2023-03-13T02:05:50;46.22;;;43.53;;
33644;SDS011;19986;48.190;16.366;2023-03-13T02:10:49;47.75;;;45.25;;
33644;SDS011;19986;48.190;16.366;2023-03-13T02:13:18;45.30;;;42.70;;
33644;SDS011;19986;48.190;16.366;2023-03-13T02:15:46;46.97;;;44.33;;
33644;SDS011;19986;48.190;16.366;2023-03-13T02:18:13;45.33;;;42.92;;
33644;SDS011;19986;48.190;16.366;2023-03-13T02:20:41;46.03;;;43.38;;
33644;SDS011;19986;48.190;16.366;2023-03-13T02:23:18;44.10;;;41.67;;
33644;SDS011;19986;48.190;16.366;2023-03-13T02:25:50;47.03;;;44.53;;
33644;SDS011;19986;48.190;16.366;2023-03-13T02:28:18;46.08;;;43.38;;
33644;SDS011;19986;48.190;16.366;2023-03-13T02:30:48;45.65;;;43.33;;
33644;SDS011;19986;48.190;16.366;2023-03-13T02:33:17;45.35;;;42.85;;
33644;SDS011;19986;48.190;16.366;2023-03-13T02:35:45;44.92;;;42.38;;
33644;SDS011;19986;48.190;16.366;2023-03-13T02:38:16;46.20;;;43.55;;
33644;SDS011;19986;48.190;16.366;2023-03-13T02:40:46;45.38;;;42.97;;
33644;SDS011;19986;48.190;16.366;2023-03-13T02:43:19;46.10;;;43.63;;
33644;SDS011;19986;48.190;16.366;2023-03-13T02:45:59;45.58;;;42.88;;
33644;SDS011;19986;48.190;16.366;2023-03-13T02:48:35;45.22;;;42.45;;
33644;SDS011;19986;48.190;16.366;2023-03-13T02:51:04;47.65;;;44.95;;
33644;SDS011;19986;48.190;16.366;2023-03-13T02:53:38;45.58;;;43.05;;
33644;SDS011;19986;48.190;16.366;2023-03-13T02:56:05;47.25;;;44.55;;
33644;SDS011;19986;48.190;16.366;2023-03-13T02:58:38;45.63;;;43.13;;
33644;SDS011;19986;48.190;16.366;2023-03-13T03:01:09;45.78;;;43.38;;
33644;SDS011;19986;48.190;16.366;2023-03-13T03:03:35;45.50;;;43.08;;
33644;SDS011;19986;48.190;16.366;2023-03-13T03:06:03;46.35;;;43.90;;
33644;SDS011;19986;48.190;16.366;2023-03-13T03:08:31;45.92;;;43.42;;
33644;SDS011;19986;48.190;16.366;2023-03-13T03:10:58;46.47;;;44.08;;
33644;SDS011;19986;48.190;16.366;2023-03-13T03:13:24;45.28;;;42.90;;
33644;SDS011;19986;48.190;16.366;2023-03-13T03:15:50;45.92;;;43.40;;
33644;SDS011;19986;48.190;16.366;2023-03-13T03:18:16;46.63;;;44.15;;
33644;SDS011;19986;48.190;16.366;2023-03-13T03:20:43;48.05;;;45.33;;
33644;SDS011;19986;48.190;16.366;2023-03-13T03:23:10;46.60;;;44.13;;
33644;SDS011;19986;48.190;16.366;2023-03-13T03:25:36;46.25;;;43.70;;
33644;SDS011;19986;48.190;16.366;2023-03-13T03:28:03;46.85;;;44.35;;
33644;SDS011;19986;48.190;16.366;2023-03-13T03:30:29;45.78;;;43.05;;
33644;SDS011;19986;48.190;16.366;2023-03-13T03:32:55;45.90;;;43.15;;
33644;SDS011;19986;48.190;16.366;2023-03-13T03:35:21;45.05;;;42.65;;
33644;SDS011;19986;48.190;16.366;2023-03-13T03:37:46;47.50;;;45.00;;
33644;SDS011;19986;48.190;16.366;2023-03-13T03:40:12;46.13;;;43.45;;
33644;SDS011;19986;48.190;16.366;2023-03-13T03:42:38;46.70;;;44.30;;
33644;SDS011;19986;48.190;16.366;2023-03-13T03:45:04;47.10;;;44.40;;
33644;SDS011;19986;48.190;16.366;2023-03-13T03:47:30;47.30;;;44.80;;
33644;SDS011;19986;48.190;16.366;2023-03-13T03:49:56;46.83;;;44.22;;
33644;SDS011;19986;48.190;16.366;2023-03-13T03:52:22;45.45;;;42.97;;
33644;SDS011;19986;48.190;16.366;2023-03-13T03:54:48;46.58;;;44.03;;
33644;SDS011;19986;48.190;16.366;2023-03-13T03:57:14;46.67;;;44.17;;
33644;SDS011;19986;48.190;16.366;2023-03-13T03:59:40;44.88;;;42.33;;
33644;SDS011;19986;48.190;16.366;2023-03-13T04:02:06;48.78;;;46.10;;
33644;SDS011;19986;48.190;16.366;2023-03-13T04:04:31;47.72;;;45.03;;
33644;SDS011;19986;48.190;16.366;2023-03-13T04:06:57;47.53;;;44.88;;
33644;SDS011;19986;48.190;16.366;2023-03-13T04:09:23;50.22;;;47.53;;
33644;SDS011;19986;48.190;16.366;2023-03-13T04:11:50;48.28;;;45.63;;
33644;SDS011;19986;48.190;16.366;2023-03-13T04:14:16;49.20;;;46.55;;
33644;SDS011;19986;48.190;16.366;2023-03-13T04:16:42;46.70;;;43.65;;
33644;SDS011;19986;48.190;16.366;2023-03-13T04:19:08;48.25;;;45.53;;
33644;SDS011;19986;48.190;16.366;2023-03-13T04:21:33;47.78;;;45.17;;
33644;SDS011;19986;48.190;16.366;2023-03-13T04:24:00;47.38;;;44.67;;
33644;SDS011;19986;48.190;16.366;2023-03-13T04:26:25;48.17;;;45.50;;
33644;SDS011;19986;48.190;16.366;2023-03-13T04:28:51;50.03;;;47.13;;
33644;SDS011;19986;48.190;16.366;2023-03-13T04:31:17;47.67;;;44.95;;
33644;SDS011;19986;48.190;16.366;2023-03-13T04:33:43;45.05;;;42.33;;
33644;SDS011;19986;48.190;16.366;2023-03-13T04:36:09;47.25;;;44.70;;
33644;SDS011;19986;48.190;16.366;2023-03-13T04:38:34;44.47;;;42.17;;
33644;SDS011;19986;48.190;16.366;2023-03-13T04:41:00;48.65;;;46.00;;
33644;SDS011;19986;48.190;16.366;2023-03-13T04:43:26;45.40;;;42.80;;
33644;SDS011;19986;48.190;16.366;2023-03-13T04:45:52;44.13;;;41.63;;
33644;SDS011;19986;48.190;16.366;2023-03-13T04:48:19;43.47;;;41.28;;
33644;SDS011;19986;48.190;16.366;2023-03-13T04:50:46;44.03;;;41.83;;
33644;SDS011;19986;48.190;16.366;2023-03-13T04:53:13;47.42;;;45.03;;
33644;SDS011;19986;48.190;16.366;2023-03-13T04:55:38;44.95;;;42.15;;
33644;SDS011;19986;48.190;16.366;2023-03-13T04:58:05;44.17;;;41.88;;
33644;SDS011;19986;48.190;16.366;2023-03-13T05:00:31;42.03;;;39.88;;
33644;SDS011;19986;48.190;16.366;2023-03-13T05:02:57;42.15;;;40.13;;
33644;SDS011;19986;48.190;16.366;2023-03-13T05:05:22;44.13;;;41.95;;
33644;SDS011;19986;48.190;16.366;2023-03-13T05:07:48;43.05;;;41.03;;
33644;SDS011;19986;48.190;16.366;2023-03-13T05:10:14;43.58;;;41.35;;
33644;SDS011;19986;48.190;16.366;2023-03-13T05:12:40;45.60;;;43.30;;
33644;SDS011;19986;48.190;16.366;2023-03-13T05:15:06;41.00;;;38.90;;
33644;SDS011;19986;48.190;16.366;2023-03-13T05:17:32;42.05;;;39.95;;
33644;SDS011;19986;48.190;16.366;2023-03-13T05:19:58;42.70;;;40.25;;
33644;SDS011;19986;48.190;16.366;2023-03-13T05:22:24;46.47;;;44.08;;
33644;SDS011;19986;48.190;16.366;2023-03-13T05:24:50;45.22;;;42.83;;
33644;SDS011;19986;48.190;16.366;2023-03-13T05:27:16;44.80;;;42.35;;
33644;SDS011;19986;48.190;16.366;2023-03-13T05:29:42;44.25;;;41.85;;
33644;SDS011;19986;48.190;16.366;2023-03-13T05:32:08;41.30;;;39.15;;
33644;SDS011;19986;48.190;16.366;2023-03-13T05:34:34;43.55;;;41.15;;
33644;SDS011;19986;48.190;16.366;2023-03-13T05:37:00;44.88;;;42.03;;
33644;SDS011;19986;48.190;16.366;2023-03-13T05:39:26;44.35;;;41.72;;
33644;SDS011;19986;48.190;16.366;2023-03-13T05:41:51;44.47;;;41.65;;
33644;SDS011;19986;48.190;16.366;2023-03-13T05:44:17;45.38;;;42.15;;
33644;SDS011;19986;48.190;16.366;2023-03-13T05:46:43;46.70;;;43.53;;
33644;SDS011;19986;48.190;16.366;2023-03-13T05:49:09;43.28;;;40.78;;
33644;SDS011;19986;48.190;16.366;2023-03-13T05:51:35;45.47;;;42.42;;
33644;SDS011;19986;48.190;16.366;2023-03-13T05:54:01;43.80;;;41.17;;
33644;SDS011;19986;48.190;16.366;2023-03-13T05:56:27;44.08;;;41.70;;
33644;SDS011;19986;48.190;16.366;2023-03-13T05:58:53;44.30;;;41.70;;
33644;SDS011;19986;48.190;16.366;2023-03-13T06:01:18;42.67;;;40.28;;
33644;SDS011;19986;48.190;16.366;2023-03-13T06:03:44;44.20;;;41.60;;
33644;SDS011;19986;48.190;16.366;2023-03-13T06:06:10;42.03;;;39.50;;
33644;SDS011;19986;48.190;16.366;2023-03-13T06:08:36;44.50;;;42.15;;
33644;SDS011;19986;48.190;16.366;2023-03-13T06:11:02;42.22;;;39.95;;
33644;SDS011;19986;48.190;16.366;2023-03-13T06:13:28;44.92;;;42.60;;
33644;SDS011;19986;48.190;16.366;2023-03-13T06:15:55;42.42;;;40.13;;
33644;SDS011;19986;48.190;16.366;2023-03-13T06:18:22;44.88;;;42.50;;
33644;SDS011;19986;48.190;16.366;2023-03-13T06:20:49;44.67;;;41.92;;
33644;SDS011;19986;48.190;16.366;2023-03-13T06:23:20;45.53;;;42.60;;
33644;SDS011;19986;48.190;16.366;2023-03-13T06:25:46;44.40;;;41.60;;
33644;SDS011;19986;48.190;16.366;2023-03-13T06:28:12;44.47;;;41.97;;
33644;SDS011;19986;48.190;16.366;2023-03-13T06:30:39;46.33;;;43.50;;
33644;SDS011;19986;48.190;16.366;2023-03-13T06:33:04;44.03;;;41.75;;
33644;SDS011;19986;48.190;16.366;2023-03-13T06:35:30;43.20;;;40.67;;
33644;SDS011;19986;48.190;16.366;2023-03-13T06:37:56;44.85;;;42.25;;
33644;SDS011;19986;48.190;16.366;2023-03-13T06:40:22;42.38;;;39.45;;
33644;SDS011;19986;48.190;16.366;2023-03-13T06:42:51;44.08;;;40.95;;
33644;SDS011;19986;48.190;16.366;2023-03-13T06:45:18;44.42;;;41.78;;
33644;SDS011;19986;48.190;16.366;2023-03-13T06:47:43;45.70;;;43.30;;
33644;SDS011;19986;48.190;16.366;2023-03-13T06:50:09;42.75;;;40.28;;
33644;SDS011;19986;48.190;16.366;2023-03-13T06:52:36;44.13;;;41.58;;
33644;SDS011;19986;48.190;16.366;2023-03-13T06:55:02;41.63;;;39.20;;
33644;SDS011;19986;48.190;16.366;2023-03-13T06:57:29;43.50;;;40.72;;
33644;SDS011;19986;48.190;16.366;2023-03-13T06:59:55;44.17;;;41.50;;
33644;SDS011;19986;48.190;16.366;2023-03-13T07:02:20;45.78;;;42.63;;
33644;SDS011;19986;48.190;16.366;2023-03-13T07:04:47;41.92;;;39.72;;
33644;SDS011;19986;48.190;16.366;2023-03-13T07:07:13;45.78;;;43.20;;
33644;SDS011;19986;48.190;16.366;2023-03-13T07:09:39;42.67;;;40.25;;
33644;SDS011;19986;48.190;16.366;2023-03-13T07:12:05;42.17;;;39.88;;
33644;SDS011;19986;48.190;16.366;2023-03-13T07:14:31;45.47;;;42.63;;
33644;SDS011;19986;48.190;16.366;2023-03-13T07:16:57;44.17;;;41.13;;
33644;SDS011;19986;48.190;16.366;2023-03-13T07:19:24;43.03;;;40.42;;
33644;SDS011;19986;48.190;16.366;2023-03-13T07:21:51;42.40;;;40.13;;
33644;SDS011;19986;48.190;16.366;2023-03-13T07:24:18;42.22;;;39.92;;
33644;SDS011;19986;48.190;16.366;2023-03-13T07:26:44;43.90;;;41.17;;
33644;SDS011;19986;48.190;16.366;2023-03-13T07:29:10;41.58;;;39.40;;
33644;SDS011;19986;48.190;16.366;2023-03-13T07:31:36;43.38;;;40.35;;
33644;SDS011;19986;48.190;16.366;2023-03-13T07:34:03;43.35;;;40.95;;
33644;SDS011;19986;48.190;16.366;2023-03-13T07:36:30;44.80;;;41.95;;
33644;SDS011;19986;48.190;16.366;2023-03-13T07:38:59;44.20;;;41.70;;
33644;SDS011;19986;48.190;16.366;2023-03-13T07:41:25;41.30;;;38.72;;
33644;SDS011;19986;48.190;16.366;2023-03-13T07:43:51;43.08;;;40.70;;
33644;SDS011;19986;48.190;16.366;2023-03-13T07:46:18;43.90;;;41.33;;
33644;SDS011;19986;48.190;16.366;2023-03-13T07:48:44;42.33;;;40.08;;
33644;SDS011;19986;48.190;16.366;2023-03-13T07:51:11;40.45;;;38.20;;
33644;SDS011;19986;48.190;16.366;2023-03-13T07:53:40;40.58;;;38.50;;
33644;SDS011;19986;48.190;16.366;2023-03-13T07:56:09;43.10;;;40.22;;
33644;SDS011;19986;48.190;16.366;2023-03-13T07:58:37;40.80;;;37.97;;
33644;SDS011;19986;48.190;16.366;2023-03-13T08:01:08;41.13;;;38.35;;
33644;SDS011;19986;48.190;16.366;2023-03-13T08:06:23;40.88;;;37.92;;
33644;SDS011;19986;48.190;16.366;2023-03-13T08:08:51;39.17;;;37.10;;
33644;SDS011;19986;48.190;16.366;2023-03-13T08:11:21;40.17;;;37.83;;
33644;SDS011;19986;48.190;16.366;2023-03-13T08:13:51;40.80;;;38.38;;
33644;SDS011;19986;48.190;16.366;2023-03-13T08:16:25;42.40;;;40.13;;
33644;SDS011;19986;48.190;16.366;2023-03-13T08:18:53;40.83;;;38.72;;
33644;SDS011;19986;48.190;16.366;2023-03-13T08:21:25;41.25;;;38.50;;
33644;SDS011;19986;48.190;16.366;2023-03-13T08:24:00;43.33;;;40.88;;
33644;SDS011;19986;48.190;16.366;2023-03-13T08:26:30;41.50;;;39.22;;
33644;SDS011;19986;48.190;16.366;2023-03-13T08:28:59;40.13;;;37.70;;
33644;SDS011;19986;48.190;16.366;2023-03-13T08:31:31;38.08;;;36.05;;
33644;SDS011;19986;48.190;16.366;2023-03-13T08:34:02;41.33;;;39.03;;
33644;SDS011;19986;48.190;16.366;2023-03-13T08:36:30;40.72;;;38.47;;
33644;SDS011;19986;48.190;16.366;2023-03-13T08:38:58;40.17;;;37.63;;
33644;SDS011;19986;48.190;16.366;2023-03-13T08:41:27;40.95;;;38.70;;
33644;SDS011;19986;48.190;16.366;2023-03-13T08:43:55;40.78;;;38.55;;
33644;SDS011;19986;48.190;16.366;2023-03-13T08:46:21;39.63;;;37.28;;
33644;SDS011;19986;48.190;16.366;2023-03-13T08:48:54;39.15;;;36.90;;
33644;SDS011;19986;48.190;16.366;2023-03-13T08:51:21;39.03;;;36.85;;
33644;SDS011;19986;48.190;16.366;2023-03-13T08:53:48;40.92;;;38.55;;
33644;SDS011;19986;48.190;16.366;2023-03-13T08:56:16;41.42;;;38.95;;
33644;SDS011;19986;48.190;16.366;2023-03-13T08:58:47;40.05;;;37.67;;
33644;SDS011;19986;48.190;16.366;2023-03-13T09:01:14;40.22;;;37.88;;
33644;SDS011;19986;48.190;16.366;2023-03-13T09:03:40;41.22;;;38.65;;
33644;SDS011;19986;48.190;16.366;2023-03-13T09:06:08;38.53;;;36.33;;
33644;SDS011;19986;48.190;16.366;2023-03-13T09:08:36;39.30;;;37.17;;
33644;SDS011;19986;48.190;16.366;2023-03-13T09:11:20;39.63;;;37.53;;
33644;SDS011;19986;48.190;16.366;2023-03-13T09:13:47;39.03;;;36.85;;
33644;SDS011;19986;48.190;16.366;2023-03-13T09:16:15;41.80;;;39.38;;
33644;SDS011;19986;48.190;16.366;2023-03-13T09:18:43;41.65;;;39.45;;
33644;SDS011;19986;48.190;16.366;2023-03-13T09:21:14;40.40;;;38.13;;
33644;SDS011;19986;48.190;16.366;2023-03-13T09:23:41;41.70;;;39.20;;
33644;SDS011;19986;48.190;16.366;2023-03-13T09:26:07;42.45;;;39.70;;
33644;SDS011;19986;48.190;16.366;2023-03-13T09:28:34;42.22;;;39.83;;
33644;SDS011;19986;48.190;16.366;2023-03-13T09:31:10;40.95;;;38.30;;
33644;SDS011;19986;48.190;16.366;2023-03-13T09:33:36;41.47;;;39.10;;
33644;SDS011;19986;48.190;16.366;2023-03-13T09:36:02;42.72;;;40.42;;
33644;SDS011;19986;48.190;16.366;2023-03-13T09:38:29;40.70;;;38.35;;
33644;SDS011;19986;48.190;16.366;2023-03-13T09:40:59;40.88;;;38.25;;
33644;SDS011;19986;48.190;16.366;2023-03-13T09:48:52;44.83;;;42.33;;
33644;SDS011;19986;48.190;16.366;2023-03-13T09:54:05;41.42;;;39.03;;
33644;SDS011;19986;48.190;16.366;2023-03-13T09:56:46;43.20;;;40.45;;
33644;SDS011;19986;48.190;16.366;2023-03-13T10:02:03;43.70;;;41.20;;
33644;SDS011;19986;48.190;16.366;2023-03-13T10:04:42;43.63;;;40.85;;
33644;SDS011;19986;48.190;16.366;2023-03-13T10:07:12;41.60;;;39.20;;
33644;SDS011;19986;48.190;16.366;2023-03-13T10:09:37;42.20;;;39.78;;
33644;SDS011;19986;48.190;16.366;2023-03-13T10:14:52;43.20;;;40.47;;
33644;SDS011;19986;48.190;16.366;2023-03-13T10:17:43;40.47;;;37.83;;
33644;SDS011;19986;48.190;16.366;2023-03-13T10:22:42;41.63;;;38.92;;
33644;SDS011;19986;48.190;16.366;2023-03-13T10:27:58;42.90;;;40.30;;
33644;SDS011;19986;48.190;16.366;2023-03-13T10:30:26;44.55;;;41.92;;
33644;SDS011;19986;48.190;16.366;2023-03-13T10:32:57;43.65;;;41.05;;
33644;SDS011;19986;48.190;16.366;2023-03-13T10:35:39;43.65;;;40.60;;
33644;SDS011;19986;48.190;16.366;2023-03-13T10:38:19;43.42;;;40.33;;
33644;SDS011;19986;48.190;16.366;2023-03-13T10:40:55;42.28;;;39.65;;
33644;SDS011;19986;48.190;16.366;2023-03-13T10:43:23;43.10;;;40.25;;
33644;SDS011;19986;48.190;16.366;2023-03-13T10:45:51;43.08;;;40.58;;
33644;SDS011;19986;48.190;16.366;2023-03-13T10:48:18;42.25;;;39.80;;
33644;SDS011;19986;48.190;16.366;2023-03-13T10:50:47;43.70;;;41.03;;
33644;SDS011;19986;48.190;16.366;2023-03-13T10:56:08;41.58;;;38.97;;
33644;SDS011;19986;48.190;16.366;2023-03-13T11:01:22;42.08;;;39.55;;
33644;SDS011;19986;48.190;16.366;2023-03-13T11:03:54;41.17;;;38.20;;
33644;SDS011;19986;48.190;16.366;2023-03-13T11:09:10;51.42;;;47.47;;
33644;SDS011;19986;48.190;16.366;2023-03-13T11:11:54;41.70;;;39.13;;
33644;SDS011;19986;48.190;16.366;2023-03-13T11:14:26;41.45;;;39.08;;
33644;SDS011;19986;48.190;16.366;2023-03-13T11:16:59;41.72;;;39.10;;
33644;SDS011;19986;48.190;16.366;2023-03-13T11:19:33;41.40;;;38.88;;
33644;SDS011;19986;48.190;16.366;2023-03-13T11:22:32;40.60;;;38.10;;
33644;SDS011;19986;48.190;16.366;2023-03-13T11:38:57;41.60;;;39.33;;
33644;SDS011;19986;48.190;16.366;2023-03-13T11:41:44;40.75;;;38.45;;
33644;SDS011;19986;48.190;16.366;2023-03-13T11:44:39;40.53;;;38.33;;
33644;SDS011;19986;48.190;16.366;2023-03-13T11:50:22;41.30;;;38.75;;
33644;SDS011;19986;48.190;16.366;2023-03-13T11:53:36;40.78;;;38.17;;
33644;SDS011;19986;48.190;16.366;2023-03-13T11:56:22;38.88;;;36.88;;
33644;SDS011;19986;48.190;16.366;2023-03-13T12:01:45;38.70;;;36.35;;
33644;SDS011;19986;48.190;16.366;2023-03-13T12:04:53;39.25;;;37.05;;
33644;SDS011;19986;48.190;16.366;2023-03-13T12:07:29;67.55;;;61.60;;
33644;SDS011;19986;48.190;16.366;2023-03-13T12:10:13;39.15;;;37.03;;
33644;SDS011;19986;48.190;16.366;2023-03-13T12:12:55;39.42;;;37.25;;
33644;SDS011;19986;48.190;16.366;2023-03-13T12:15:28;37.88;;;35.97;;
33644;SDS011;19986;48.190;16.366;2023-03-13T12:20:40;38.35;;;36.05;;
33644;SDS011;19986;48.190;16.366;2023-03-13T12:26:03;41.80;;;38.40;;
33644;SDS011;19986;48.190;16.366;2023-03-13T12:33:41;38.55;;;36.45;;
33644;SDS011;19986;48.190;16.366;2023-03-13T12:38:43;36.17;;;34.28;;
33644;SDS011;19986;48.190;16.366;2023-03-13T12:41:18;38.70;;;36.58;;
33644;SDS011;19986;48.190;16.366;2023-03-13T12:43:52;40.58;;;38.10;;
33644;SDS011;19986;48.190;16.366;2023-03-13T12:54:51;38.75;;;36.40;;
33644;SDS011;19986;48.190;16.366;2023-03-13T13:00:13;39.03;;;36.83;;
33644;SDS011;19986;48.190;16.366;2023-03-13T13:02:43;38.72;;;36.60;;
33644;SDS011;19986;48.190;16.366;2023-03-13T13:05:19;36.85;;;34.78;;
33644;SDS011;19986;48.190;16.366;2023-03-13T13:07:53;39.72;;;37.55;;
33644;SDS011;19986;48.190;16.366;2023-03-13T13:10:21;38.88;;;36.78;;
33644;SDS011;19986;48.190;16.366;2023-03-13T13:15:45;38.60;;;36.70;;
33644;SDS011;19986;48.190;16.366;2023-03-13T13:28:58;40.28;;;37.88;;
33644;SDS011;19986;48.190;16.366;2023-03-13T13:31:58;37.53;;;35.22;;
33644;SDS011;19986;48.190;16.366;2023-03-13T13:36:55;38.88;;;36.70;;
33644;SDS011;19986;48.190;16.366;2023-03-13T13:39:53;37.30;;;35.40;;
33644;SDS011;19986;48.190;16.366;2023-03-13T13:47:41;39.67;;;37.55;;
33644;SDS011;19986;48.190;16.366;2023-03-13T13:50:19;40.17;;;37.67;;
33644;SDS011;19986;48.190;16.366;2023-03-13T13:52:50;38.38;;;36.17;;
33644;SDS011;19986;48.190;16.366;2023-03-13T13:58:04;39.35;;;37.13;;
33644;SDS011;19986;48.190;16.366;2023-03-13T14:00:40;40.10;;;37.10;;
33644;SDS011;19986;48.190;16.366;2023-03-13T14:06:00;39.85;;;37.72;;
33644;SDS011;19986;48.190;16.366;2023-03-13T14:08:36;39.97;;;37.67;;
33644;SDS011;19986;48.190;16.366;2023-03-13T14:16:47;41.22;;;38.30;;
33644;SDS011;19986;48.190;16.366;2023-03-13T14:22:01;38.42;;;36.03;;
33644;SDS011;19986;48.190;16.366;2023-03-13T14:24:32;37.20;;;34.80;;
33644;SDS011;19986;48.190;16.366;2023-03-13T14:26:59;40.97;;;38.22;;
33644;SDS011;19986;48.190;16.366;2023-03-13T14:29:25;39.10;;;36.80;;
33644;SDS011;19986;48.190;16.366;2023-03-13T14:31:52;37.47;;;34.75;;
33644;SDS011;19986;48.190;16.366;2023-03-13T14:34:20;37.97;;;35.40;;
33644;SDS011;19986;48.190;16.366;2023-03-13T14:39:18;38.25;;;35.55;;
33644;SDS011;19986;48.190;16.366;2023-03-13T14:41:45;38.40;;;36.15;;
33644;SDS011;19986;48.190;16.366;2023-03-13T14:44:19;40.22;;;37.67;;
33644;SDS011;19986;48.190;16.366;2023-03-13T14:46:54;37.95;;;35.53;;
33644;SDS011;19986;48.190;16.366;2023-03-13T14:49:24;40.08;;;37.72;;
33644;SDS011;19986;48.190;16.366;2023-03-13T14:51:57;39.88;;;37.03;;
33644;SDS011;19986;48.190;16.366;2023-03-13T14:54:57;39.90;;;37.22;;
33644;SDS011;19986;48.190;16.366;2023-03-13T14:57:28;39.83;;;37.05;;
33644;SDS011;19986;48.190;16.366;2023-03-13T15:00:20;40.78;;;38.28;;
33644;SDS011;19986;48.190;16.366;2023-03-13T15:05:48;40.20;;;37.72;;
33644;SDS011;19986;48.190;16.366;2023-03-13T15:08:15;40.58;;;38.00;;
33644;SDS011;19986;48.190;16.366;2023-03-13T15:10:43;39.17;;;36.72;;
33644;SDS011;19986;48.190;16.366;2023-03-13T15:15:47;38.13;;;35.85;;
33644;SDS011;19986;48.190;16.366;2023-03-13T15:18:18;39.67;;;37.17;;
33644;SDS011;19986;48.190;16.366;2023-03-13T15:20:49;38.55;;;36.00;;
33644;SDS011;19986;48.190;16.366;2023-03-13T15:23:20;38.78;;;36.47;;
33644;SDS011;19986;48.190;16.366;2023-03-13T15:25:46;38.95;;;36.55;;
33644;SDS011;19986;48.190;16.366;2023-03-13T15:28:17;40.90;;;38.28;;
33644;SDS011;19986;48.190;16.366;2023-03-13T15:30:45;39.13;;;36.65;;
33644;SDS011;19986;48.190;16.366;2023-03-13T15:33:17;40.38;;;37.92;;
33644;SDS011;19986;48.190;16.366;2023-03-13T15:35:46;40.20;;;37.72;;
33644;SDS011;19986;48.190;16.366;2023-03-13T15:38:13;38.75;;;35.92;;
33644;SDS011;19986;48.190;16.366;2023-03-13T15:40:41;40.60;;;38.10;;
33644;SDS011;19986;48.190;16.366;2023-03-13T15:43:07;45.05;;;41.92;;
33644;SDS011;19986;48.190;16.366;2023-03-13T15:45:34;38.50;;;36.08;;
33644;SDS011;19986;48.190;16.366;2023-03-13T15:48:02;40.20;;;37.22;;
33644;SDS011;19986;48.190;16.366;2023-03-13T15:50:35;41.08;;;38.58;;
33644;SDS011;19986;48.190;16.366;2023-03-13T15:53:02;39.90;;;37.63;;
33644;SDS011;19986;48.190;16.366;2023-03-13T15:55:31;40.55;;;37.88;;
33644;SDS011;19986;48.190;16.366;2023-03-13T15:57:58;40.55;;;38.10;;
33644;SDS011;19986;48.190;16.366;2023-03-13T16:00:24;41.50;;;38.60;;
33644;SDS011;19986;48.190;16.366;2023-03-13T16:02:51;40.58;;;38.00;;
33644;SDS011;19986;48.190;16.366;2023-03-13T16:05:17;41.55;;;39.28;;
33644;SDS011;19986;48.190;16.366;2023-03-13T16:07:44;41.33;;;38.65;;
33644;SDS011;19986;48.190;16.366;2023-03-13T16:10:15;41.30;;;38.83;;
33644;SDS011;19986;48.190;16.366;2023-03-13T16:12:45;40.08;;;37.92;;
33644;SDS011;19986;48.190;16.366;2023-03-13T16:15:11;42.28;;;39.03;;
33644;SDS011;19986;48.190;16.366;2023-03-13T16:17:37;42.33;;;39.45;;
33644;SDS011;19986;48.190;16.366;2023-03-13T16:20:03;42.40;;;39.70;;
33644;SDS011;19986;48.190;16.366;2023-03-13T16:22:35;39.92;;;37.33;;
33644;SDS011;19986;48.190;16.366;2023-03-13T16:25:01;40.30;;;37.67;;
33644;SDS011;19986;48.190;16.366;2023-03-13T16:27:28;42.13;;;39.72;;
33644;SDS011;19986;48.190;16.366;2023-03-13T16:29:55;44.05;;;41.05;;